createdAt,value
2023-02-04T00:00:37.375Z,6.20
2023-02-04T00:03:06.484Z,6.20
2023-02-04T00:05:34.708Z,6.50
2023-02-04T00:08:04.551Z,6.40
2023-02-04T00:10:33.081Z,5.90
2023-02-04T00:13:01.748Z,6.70
2023-02-04T00:15:31.525Z,6.00
2023-02-04T00:17:59.589Z,6.60
2023-02-04T00:20:27.864Z,6.20
2023-02-04T00:22:57.199Z,6.20
2023-02-04T00:25:25.443Z,6.10
2023-02-04T00:27:53.626Z,6.10
2023-02-04T00:30:22.090Z,6.30
2023-02-04T00:32:54.782Z,6.40
2023-02-04T00:35:23.160Z,6.30
2023-02-04T00:37:51.875Z,6.90
2023-02-04T00:40:20.270Z,7.20
2023-02-04T00:42:48.389Z,6.50
2023-02-04T00:45:16.546Z,6.60
2023-02-04T00:47:44.708Z,7.10
2023-02-04T00:50:14.214Z,6.70
2023-02-04T00:52:42.321Z,6.80
2023-02-04T00:55:12.270Z,6.60
2023-02-04T00:57:40.822Z,6.90
2023-02-04T01:00:10.223Z,6.90
2023-02-04T01:02:40.476Z,6.80
2023-02-04T01:05:09.311Z,6.60
2023-02-04T01:07:38.946Z,7.00
2023-02-04T01:10:07.544Z,6.90
2023-02-04T01:12:35.770Z,7.00
2023-02-04T01:15:04.207Z,6.90
2023-02-04T01:17:32.710Z,7.00
2023-02-04T01:20:00.877Z,7.00
2023-02-04T01:22:29.016Z,7.00
2023-02-04T01:24:58.482Z,7.10
2023-02-04T01:27:26.580Z,7.10
2023-02-04T01:29:54.717Z,7.00
2023-02-04T01:34:51.294Z,7.00
2023-02-04T01:37:19.403Z,7.00
2023-02-04T01:39:47.557Z,6.90
2023-02-04T01:42:17.166Z,7.10
2023-02-04T01:44:45.440Z,7.20
2023-02-04T01:47:13.672Z,7.60
2023-02-04T01:49:42.116Z,7.10
2023-02-04T01:52:12.002Z,7.80
2023-02-04T01:54:40.217Z,7.20
2023-02-04T01:57:14.574Z,7.20
2023-02-04T02:02:39.275Z,7.20
2023-02-04T02:05:08.215Z,7.30
2023-02-04T02:07:36.725Z,7.30
2023-02-04T02:10:06.524Z,8.00
2023-02-04T02:12:34.694Z,7.30
2023-02-04T02:15:04.596Z,7.40
2023-02-04T02:17:33.527Z,7.40
2023-02-04T02:20:01.841Z,7.90
2023-02-04T02:22:33.258Z,7.40
2023-02-04T02:25:02.853Z,7.40
2023-02-04T02:27:31.032Z,7.50
2023-02-04T02:29:59.169Z,7.50
2023-02-04T02:34:55.679Z,7.50
2023-02-04T02:37:23.927Z,7.30
2023-02-04T02:39:52.205Z,7.20
2023-02-04T02:44:51.684Z,6.90
2023-02-04T02:47:23.168Z,7.60
2023-02-04T02:49:53.496Z,6.80
2023-02-04T02:57:23.653Z,6.60
2023-02-04T02:59:51.803Z,7.00
2023-02-04T03:02:24.502Z,6.60
2023-02-04T03:04:55.917Z,6.60
2023-02-04T03:07:24.625Z,6.60
2023-02-04T03:09:53.689Z,6.50
2023-02-04T03:12:23.327Z,6.90
2023-02-04T03:14:51.558Z,6.60
2023-02-04T03:17:19.774Z,6.60
2023-02-04T03:19:47.980Z,6.60
2023-02-04T03:22:16.313Z,6.80
2023-02-04T03:24:44.512Z,6.80
2023-02-04T03:27:12.684Z,6.70
2023-02-04T03:29:45.344Z,6.90
2023-02-04T03:32:13.971Z,6.60
2023-02-04T03:34:42.120Z,7.10
2023-02-04T03:37:10.769Z,6.90
2023-02-04T03:39:38.990Z,7.00
2023-02-04T03:42:07.301Z,6.60
2023-02-04T03:44:35.386Z,6.90
2023-02-04T03:47:04.807Z,6.90
2023-02-04T03:49:33.324Z,6.90
2023-02-04T03:52:01.393Z,7.00
2023-02-04T03:54:29.580Z,6.90
2023-02-04T03:56:57.700Z,7.10
2023-02-04T03:59:25.818Z,7.10
2023-02-04T04:01:54.037Z,7.10
2023-02-04T04:04:23.626Z,7.10
2023-02-04T04:06:51.693Z,7.10
2023-02-04T04:09:19.836Z,7.00
2023-02-04T04:11:47.999Z,7.70
2023-02-04T04:14:16.188Z,7.10
2023-02-04T04:16:44.371Z,7.00
2023-02-04T04:19:12.471Z,6.80
2023-02-04T04:21:41.936Z,6.80
2023-02-04T04:24:10.011Z,6.70
2023-02-04T04:26:38.103Z,7.40
2023-02-04T04:29:06.241Z,7.20
2023-02-04T04:31:34.465Z,6.90
2023-02-04T04:34:02.889Z,6.90
2023-02-04T04:36:31.120Z,7.20
2023-02-04T04:39:00.829Z,6.60
2023-02-04T04:41:28.981Z,6.50
2023-02-04T04:43:57.063Z,6.60
2023-02-04T04:46:25.261Z,6.30
2023-02-04T04:48:53.413Z,6.40
2023-02-04T04:51:21.611Z,6.50
2023-02-04T04:53:49.654Z,6.10
2023-02-04T04:56:19.242Z,6.20
2023-02-04T04:58:47.415Z,6.00
2023-02-04T05:01:15.604Z,6.10
2023-02-04T05:03:43.847Z,6.30
2023-02-04T05:06:13.103Z,6.20
2023-02-04T05:08:41.222Z,6.10
2023-02-04T05:11:09.373Z,6.00
2023-02-04T05:13:38.842Z,5.30
2023-02-04T05:16:07.327Z,6.20
2023-02-04T05:18:35.560Z,5.90
2023-02-04T05:21:03.584Z,5.90
2023-02-04T05:23:31.742Z,6.10
2023-02-04T05:25:59.916Z,6.00
2023-02-04T05:28:28.273Z,6.80
2023-02-04T05:30:57.779Z,6.50
2023-02-04T05:33:26.305Z,6.40
2023-02-04T05:35:56.566Z,6.10
2023-02-04T05:38:24.682Z,6.20
2023-02-04T05:40:52.831Z,6.60
2023-02-04T05:43:20.900Z,6.10
2023-02-04T05:45:49.142Z,6.60
2023-02-04T05:48:18.658Z,5.90
2023-02-04T05:50:46.827Z,6.20
2023-02-04T05:53:14.985Z,6.00
2023-02-04T05:55:43.101Z,6.80
2023-02-04T05:58:11.380Z,6.50
2023-02-04T06:00:39.544Z,6.40
2023-02-04T06:03:07.688Z,6.10
2023-02-04T06:05:40.198Z,6.90
2023-02-04T06:08:08.323Z,6.00
2023-02-04T06:10:36.429Z,6.00
2023-02-04T06:13:04.585Z,6.10
2023-02-04T06:15:32.770Z,6.00
2023-02-04T06:18:00.902Z,6.00
2023-02-04T06:20:29.011Z,6.00
2023-02-04T06:22:58.544Z,6.90
2023-02-04T06:25:26.951Z,6.00
2023-02-04T06:27:55.142Z,6.00
2023-02-04T06:30:23.338Z,6.20
2023-02-04T06:32:51.465Z,6.00
2023-02-04T06:35:19.617Z,6.80
2023-02-04T06:37:47.784Z,6.30
2023-02-04T06:40:17.645Z,6.70
2023-02-04T06:42:45.781Z,6.10
2023-02-04T06:45:14.022Z,6.10
2023-02-04T06:47:42.206Z,6.70
2023-02-04T06:50:12.273Z,6.00
2023-02-04T06:52:40.400Z,6.10
2023-02-04T06:55:08.669Z,6.10
2023-02-04T06:57:38.194Z,6.20
2023-02-04T07:00:07.135Z,6.30
2023-02-04T07:02:35.398Z,6.10
2023-02-04T07:05:03.647Z,6.00
2023-02-04T07:07:31.818Z,6.00
2023-02-04T07:09:59.989Z,6.40
2023-02-04T07:12:28.141Z,6.10
2023-02-04T07:14:57.691Z,7.10
2023-02-04T07:17:25.853Z,6.20
2023-02-04T07:19:53.949Z,6.20
2023-02-04T07:22:22.137Z,6.30
2023-02-04T07:24:50.238Z,6.20
2023-02-04T07:27:18.340Z,6.20
2023-02-04T07:29:46.473Z,6.00
2023-02-04T07:34:44.370Z,5.80
2023-02-04T07:37:12.493Z,5.30
2023-02-04T07:39:40.550Z,5.90
2023-02-04T07:42:09.416Z,5.90
2023-02-04T07:44:38.560Z,6.00
2023-02-04T07:47:06.807Z,5.90
2023-02-04T07:49:36.280Z,6.00
2023-02-04T07:52:04.472Z,6.00
2023-02-04T07:54:32.597Z,6.00
2023-02-04T07:57:00.750Z,6.00
2023-02-04T07:59:28.862Z,6.00
2023-02-04T08:01:57.022Z,6.20
2023-02-04T08:04:25.234Z,6.00
2023-02-04T08:06:54.780Z,5.50
2023-02-04T08:09:23.930Z,6.10
2023-02-04T08:11:52.102Z,6.10
2023-02-04T08:14:20.290Z,6.50
2023-02-04T08:16:48.557Z,6.20
2023-02-04T08:19:19.185Z,6.10
2023-02-04T08:21:47.393Z,5.90
2023-02-04T08:24:17.584Z,6.90
2023-02-04T08:26:45.984Z,6.10
2023-02-04T08:29:14.284Z,6.20
2023-02-04T08:31:42.497Z,6.50
2023-02-04T08:34:10.701Z,6.20
2023-02-04T08:36:38.808Z,6.20
2023-02-04T08:39:06.962Z,6.20
2023-02-04T08:41:36.472Z,6.20
2023-02-04T08:44:04.566Z,6.20
2023-02-04T08:46:32.789Z,6.40
2023-02-04T08:49:00.840Z,6.80
2023-02-04T08:51:29.857Z,6.80
2023-02-04T08:53:57.837Z,6.50
2023-02-04T08:56:26.038Z,6.40
2023-02-04T08:58:55.470Z,6.50
2023-02-04T09:01:23.530Z,7.00
2023-02-04T09:03:51.587Z,6.60
2023-02-04T09:06:19.634Z,6.60
2023-02-04T09:08:47.639Z,6.80
2023-02-04T09:11:15.673Z,6.80
2023-02-04T09:13:43.666Z,7.50
2023-02-04T09:16:13.173Z,6.80
2023-02-04T09:18:41.253Z,7.20
2023-02-04T09:21:09.230Z,6.80
2023-02-04T09:23:37.282Z,6.90
2023-02-04T09:26:06.391Z,7.00
2023-02-04T09:28:34.371Z,6.90
2023-02-04T09:31:04.454Z,7.00
2023-02-04T09:33:34.743Z,6.80
2023-02-04T09:36:03.130Z,7.20
2023-02-04T09:38:31.178Z,6.90
2023-02-04T09:41:03.208Z,7.10
2023-02-04T09:43:35.368Z,7.10
2023-02-04T09:46:04.505Z,7.10
2023-02-04T09:48:34.235Z,7.20
2023-02-04T09:51:06.209Z,6.60
2023-02-04T09:53:35.234Z,7.10
2023-02-04T09:56:03.360Z,7.10
2023-02-04T09:58:34.898Z,7.90
2023-02-04T10:01:12.141Z,8.20
2023-02-04T10:03:46.693Z,7.40
2023-02-04T10:06:16.442Z,7.50
2023-02-04T10:08:47.512Z,8.30
2023-02-04T10:11:17.167Z,7.60
2023-02-04T10:13:50.153Z,8.20
2023-02-04T10:16:21.061Z,7.70
2023-02-04T10:18:51.119Z,7.60
2023-02-04T10:21:21.991Z,8.10
2023-02-04T10:23:53.363Z,8.50
2023-02-04T10:26:22.857Z,7.60
2023-02-04T10:28:50.961Z,8.40
2023-02-04T10:31:31.069Z,8.10
2023-02-04T10:34:11.674Z,8.00
2023-02-04T10:36:40.550Z,8.20
2023-02-04T10:39:13.328Z,8.20
2023-02-04T10:41:49.439Z,8.60
2023-02-04T10:44:20.138Z,8.10
2023-02-04T10:46:48.402Z,7.80
2023-02-04T10:49:25.805Z,8.70
2023-02-04T10:51:54.423Z,8.60
2023-02-04T10:54:30.946Z,8.30
2023-02-04T10:57:00.819Z,7.60
2023-02-04T10:59:29.390Z,8.00
2023-02-04T11:01:58.877Z,7.50
2023-02-04T11:04:29.405Z,7.80
2023-02-04T11:06:57.378Z,8.20
2023-02-04T11:09:25.400Z,7.40
2023-02-04T11:11:53.427Z,8.00
2023-02-04T11:14:28.180Z,7.60
2023-02-04T11:17:00.844Z,7.80
2023-02-04T11:19:36.739Z,8.40
2023-02-04T11:22:20.805Z,8.20
2023-02-04T11:24:48.850Z,8.20
2023-02-04T11:27:23.423Z,8.30
2023-02-04T11:29:52.184Z,8.60
2023-02-04T11:32:36.184Z,8.20
2023-02-04T11:35:26.248Z,8.60
2023-02-04T11:37:55.891Z,8.00
2023-02-04T11:40:30.387Z,8.20
2023-02-04T11:43:04.393Z,7.60
2023-02-04T11:45:35.168Z,7.40
2023-02-04T11:48:05.015Z,8.20
2023-02-04T11:50:38.495Z,8.00
2023-02-04T11:53:06.846Z,7.50
2023-02-04T11:55:37.793Z,7.50
2023-02-04T11:58:07.349Z,7.50
2023-02-04T12:00:35.350Z,7.40
2023-02-04T12:03:07.861Z,8.20
2023-02-04T12:05:43.350Z,8.20
2023-02-04T12:08:25.601Z,7.60
2023-02-04T12:11:02.784Z,8.40
2023-02-04T12:13:31.635Z,8.00
2023-02-04T12:16:01.510Z,8.60
2023-02-04T12:21:00.136Z,7.80
2023-02-04T12:23:30.481Z,8.70
2023-02-04T12:25:58.891Z,8.70
2023-02-04T12:28:27.919Z,8.00
2023-02-04T12:33:25.600Z,7.80
2023-02-04T12:35:53.892Z,8.20
2023-02-04T12:38:23.301Z,7.50
2023-02-04T12:40:51.360Z,7.50
2023-02-04T12:43:19.384Z,7.50
2023-02-04T12:45:49.793Z,7.60
2023-02-04T12:48:18.108Z,7.60
2023-02-04T12:50:46.194Z,7.60
2023-02-04T12:53:14.331Z,7.90
2023-02-04T12:55:43.707Z,7.80
2023-02-04T12:58:11.802Z,7.90
2023-02-04T13:00:40.049Z,8.00
2023-02-04T13:03:08.092Z,8.00
2023-02-04T13:05:36.145Z,8.10
2023-02-04T13:08:04.202Z,7.90
2023-02-04T13:10:32.199Z,8.30
2023-02-04T13:13:04.055Z,8.60
2023-02-04T13:15:32.741Z,8.00
2023-02-04T13:18:00.957Z,8.40
2023-02-04T13:20:28.995Z,7.90
2023-02-04T13:22:57.024Z,7.90
2023-02-04T13:25:25.042Z,7.90
2023-02-04T13:27:53.224Z,8.40
2023-02-04T13:30:22.838Z,8.00
2023-02-04T13:32:50.855Z,7.70
2023-02-04T13:35:19.513Z,8.10
2023-02-04T13:37:47.623Z,7.90
2023-02-04T13:40:15.760Z,8.20
2023-02-04T13:45:13.162Z,8.20
2023-02-04T13:47:42.541Z,8.40
2023-02-04T13:50:11.001Z,9.30
2023-02-04T13:52:39.034Z,8.40
2023-02-04T13:55:07.513Z,8.80
2023-02-04T13:57:37.362Z,8.30
2023-02-04T14:00:06.820Z,8.30
2023-02-04T14:02:35.121Z,8.30
2023-02-04T14:05:04.565Z,7.70
2023-02-04T14:07:33.543Z,8.50
2023-02-04T14:10:01.601Z,8.40
2023-02-04T14:14:57.935Z,8.60
2023-02-04T14:17:26.031Z,8.90
2023-02-04T14:19:54.070Z,8.10
2023-02-04T14:22:23.462Z,8.20
2023-02-04T14:24:51.498Z,8.10
2023-02-04T14:27:19.542Z,8.10
2023-02-04T14:34:44.263Z,8.40
2023-02-04T14:37:12.271Z,8.40
2023-02-04T14:39:41.632Z,8.50
2023-02-04T14:42:09.638Z,8.50
